Station Historical Data
Daily Summary for January 24, 2012 Units:  Both    English   Metric
« Previous Day
Next Day »
Daily Weekly Monthly Yearly Custom
  High: Low: Average:
Temperature: 58.6 °F /  14.8 °C 34.5 °F /  1.4 °C 46.4 °F /  8 °C
Dew Point: 40.2 °F /  4.6 °C 31.4 °F /  -0.3 °C 35.1 °F /  1.7 °C
Humidity: 96% 37% 68%
Wind Speed: 7.0mph /  11.3km/h - 1.7mph /  2.7km/h
Wind Gust: 10.0mph /  16.1km/h - -
Wind- - SE
Pressure: 30.27 in /  1024.9 hPa 30.06 in /  1017.8 hPa -
Precipitation: 0.00 in /  0 mm    
Historical Graphs
 
 
Tabular Data for January 24, 2012
Time Temperature Dew Point Pressure Wind Wind Speed Wind Gust Humidity Rainfall Rate (Hourly) Conditions
00:00 42.2 °F /  5.7 °C 37.4 °F /  3 °C 30.06in /  1017.8hPa Calm   2.0mph /  3.2km/h 83% 0.00in /  0mm
00:02 42.3 °F /  5.7 °C 37.5 °F /  3.1 °C 30.07in /  1018.2hPa WNW 1.0mph /  1.6km/h 1.0mph /  1.6km/h 83% 0.00in /  0mm
00:07 42.3 °F /  5.7 °C 37.5 °F /  3.1 °C 30.07in /  1018.2hPa Calm   1.0mph /  1.6km/h 83% 0.00in /  0mm
00:12 42.4 °F /  5.8 °C 37.3 °F /  2.9 °C 30.07in /  1018.2hPa Calm   1.0mph /  1.6km/h 82% 0.00in /  0mm
00:17 42.4 °F /  5.8 °C 37.3 °F /  2.9 °C 30.07in /  1018.2hPa Calm   1.0mph /  1.6km/h 82% 0.00in /  0mm
00:22 42.4 °F /  5.8 °C 37.3 °F /  2.9 °C 30.07in /  1018.2hPa Calm   1.0mph /  1.6km/h 82% 0.00in /  0mm
00:27 42.2 °F /  5.7 °C 37.1 °F /  2.8 °C 30.07in /  1018.2hPa WNW 1.0mph /  1.6km/h 1.0mph /  1.6km/h 82% 0.00in /  0mm
00:32 42.3 °F /  5.7 °C 37.2 °F /  2.9 °C 30.07in /  1018.2hPa WNW 2.0mph /  3.2km/h 2.0mph /  3.2km/h 82% 0.00in /  0mm
00:37 42.3 °F /  5.7 °C 37.2 °F /  2.9 °C 30.07in /  1018.2hPa WNW 3.0mph /  4.8km/h 3.0mph /  4.8km/h 82% 0.00in /  0mm
00:42 42.3 °F /  5.7 °C 36.9 °F /  2.7 °C 30.07in /  1018.2hPa WNW 2.0mph /  3.2km/h 3.0mph /  4.8km/h 81% 0.00in /  0mm
00:48 42.3 °F /  5.7 °C 36.9 °F /  2.7 °C 30.07in /  1018.2hPa WNW 1.0mph /  1.6km/h 2.0mph /  3.2km/h 81% 0.00in /  0mm
00:53 42.1 °F /  5.6 °C 37.0 °F /  2.8 °C 30.07in /  1018.2hPa WNW 1.0mph /  1.6km/h 1.0mph /  1.6km/h 82% 0.00in /  0mm
00:58 42.0 °F /  5.6 °C 36.9 °F /  2.7 °C 30.08in /  1018.5hPa WNW 1.0mph /  1.6km/h 1.0mph /  1.6km/h 82% 0.00in /  0mm
01:03 42.0 °F /  5.6 °C 36.9 °F /  2.7 °C 30.08in /  1018.5hPa WNW 1.0mph /  1.6km/h 1.0mph /  1.6km/h 82% 0.00in /  0mm
01:08 42.0 °F /  5.6 °C 36.9 °F /  2.7 °C 30.08in /  1018.5hPa WNW 1.0mph /  1.6km/h 1.0mph /  1.6km/h 82% 0.00in /  0mm
01:13 42.0 °F /  5.6 °C 36.9 °F /  2.7 °C 30.08in /  1018.5hPa Calm   1.0mph /  1.6km/h 82% 0.00in /  0mm
01:18 41.9 °F /  5.5 °C 36.8 °F /  2.7 °C 30.08in /  1018.5hPa Calm   1.0mph /  1.6km/h 82% 0.00in /  0mm
01:23 41.7 °F /  5.4 °C 36.6 °F /  2.6 °C 30.08in /  1018.5hPa Calm     82% 0.00in /  0mm
01:28 41.6 °F /  5.3 °C 36.5 °F /  2.5 °C 30.09in /  1018.8hPa Calm     82% 0.00in /  0mm
01:33 41.5 °F /  5.3 °C 36.7 °F /  2.6 °C 30.09in /  1018.8hPa Calm     83% 0.00in /  0mm
01:38 41.4 °F /  5.2 °C 36.6 °F /  2.6 °C 30.09in /  1018.8hPa Calm     83% 0.00in /  0mm
01:43 41.2 °F /  5.1 °C 36.4 °F /  2.4 °C 30.09in /  1018.8hPa Calm     83% 0.00in /  0mm
01:48 41.0 °F /  5 °C 36.5 °F /  2.5 °C 30.09in /  1018.8hPa Calm     84% 0.00in /  0mm
01:53 40.8 °F /  4.9 °C 36.3 °F /  2.4 °C 30.10in /  1019.2hPa Calm     84% 0.00in /  0mm
01:58 40.4 °F /  4.7 °C 36.3 °F /  2.4 °C 30.10in /  1019.2hPa Calm     85% 0.00in /  0mm
02:03 40.2 °F /  4.6 °C 36.1 °F /  2.3 °C 30.10in /  1019.2hPa Calm     85% 0.00in /  0mm
02:08 39.9 °F /  4.4 °C 36.1 °F /  2.3 °C 30.10in /  1019.2hPa Calm     86% 0.00in /  0mm
02:13 39.5 °F /  4.2 °C 35.7 °F /  2.1 °C 30.11in /  1019.5hPa Calm     86% 0.00in /  0mm
02:18 39.3 °F /  4.1 °C 35.8 °F /  2.1 °C 30.11in /  1019.5hPa Calm     87% 0.00in /  0mm
02:23 39.3 °F /  4.1 °C 36.0 °F /  2.2 °C 30.11in /  1019.5hPa Calm   1.0mph /  1.6km/h 88% 0.00in /  0mm
02:28 39.3 °F /  4.1 °C 36.0 °F /  2.2 °C 30.11in /  1019.5hPa Calm   1.0mph /  1.6km/h 88% 0.00in /  0mm
02:33 39.3 °F /  4.1 °C 36.0 °F /  2.2 °C 30.11in /  1019.5hPa Calm     88% 0.00in /  0mm
02:38 39.4 °F /  4.1 °C 36.2 °F /  2.3 °C 30.11in /  1019.5hPa Calm     88% 0.00in /  0mm
02:43 39.4 °F /  4.1 °C 36.2 °F /  2.3 °C 30.11in /  1019.5hPa Calm     88% 0.00in /  0mm
02:48 39.6 °F /  4.2 °C 36.3 °F /  2.4 °C 30.11in /  1019.5hPa Calm     88% 0.00in /  0mm
02:53 39.6 °F /  4.2 °C 36.1 °F /  2.3 °C 30.11in /  1019.5hPa Calm     87% 0.00in /  0mm
02:58 39.7 °F /  4.3 °C 36.2 °F /  2.3 °C 30.11in /  1019.5hPa Calm     87% 0.00in /  0mm
03:03 39.6 °F /  4.2 °C 36.1 °F /  2.3 °C 30.12in /  1019.9hPa Calm     87% 0.00in /  0mm
03:08 39.1 °F /  3.9 °C 35.6 °F /  2 °C 30.12in /  1019.9hPa Calm     87% 0.00in /  0mm
03:13 38.6 °F /  3.7 °C 35.4 °F /  1.9 °C 30.12in /  1019.9hPa Calm     88% 0.00in /  0mm
03:18 38.0 °F /  3.3 °C 35.0 °F /  1.7 °C 30.12in /  1019.9hPa Calm     89% 0.00in /  0mm
03:23 37.5 °F /  3.1 °C 34.8 °F /  1.6 °C 30.13in /  1020.2hPa Calm   1.0mph /  1.6km/h 90% 0.00in /  0mm
03:28 37.0 °F /  2.8 °C 34.6 °F /  1.4 °C 30.13in /  1020.2hPa SSE 2.0mph /  3.2km/h 2.0mph /  3.2km/h 91% 0.00in /  0mm
03:33 36.6 °F /  2.6 °C 34.5 °F /  1.4 °C 30.13in /  1020.2hPa SSE 2.0mph /  3.2km/h 2.0mph /  3.2km/h 92% 0.00in /  0mm
03:38 36.6 °F /  2.6 °C 34.8 °F /  1.6 °C 30.13in /  1020.2hPa SSE 1.0mph /  1.6km/h 2.0mph /  3.2km/h 93% 0.00in /  0mm
03:43 36.7 °F /  2.6 °C 34.9 °F /  1.6 °C 30.13in /  1020.2hPa SSE 1.0mph /  1.6km/h 1.0mph /  1.6km/h 93% 0.00in /  0mm
03:48 36.7 °F /  2.6 °C 34.9 °F /  1.6 °C 30.13in /  1020.2hPa Calm     93% 0.00in /  0mm
03:53 36.4 °F /  2.4 °C 34.6 °F /  1.4 °C 30.13in /  1020.2hPa Calm     93% 0.00in /  0mm
03:58 36.1 °F /  2.3 °C 34.3 °F /  1.3 °C 30.13in /  1020.2hPa Calm     93% 0.00in /  0mm
04:03 35.9 °F /  2.2 °C 34.3 °F /  1.3 °C 30.13in /  1020.2hPa Calm     94% 0.00in /  0mm
04:08 35.5 °F /  1.9 °C 33.7 °F /  0.9 °C 30.13in /  1020.2hPa Calm     93% 0.00in /  0mm
04:13 35.4 °F /  1.9 °C 33.8 °F /  1 °C 30.13in /  1020.2hPa Calm     94% 0.00in /  0mm
04:18 35.3 °F /  1.8 °C 34.0 °F /  1.1 °C 30.13in /  1020.2hPa SSE 1.0mph /  1.6km/h 1.0mph /  1.6km/h 95% 0.00in /  0mm
04:23 35.6 °F /  2 °C 34.3 °F /  1.3 °C 30.13in /  1020.2hPa Calm   1.0mph /  1.6km/h 95% 0.00in /  0mm
04:28 35.9 °F /  2.2 °C 34.6 °F /  1.4 °C 30.13in /  1020.2hPa Calm     95% 0.00in /  0mm
04:33 35.9 °F /  2.2 °C 34.6 °F /  1.4 °C 30.13in /  1020.2hPa Calm     95% 0.00in /  0mm
04:38 35.7 °F /  2.1 °C 34.4 °F /  1.3 °C 30.13in /  1020.2hPa Calm     95% 0.00in /  0mm
04:43 35.7 °F /  2.1 °C 34.4 °F /  1.3 °C 30.13in /  1020.2hPa Calm     95% 0.00in /  0mm
04:48 35.7 °F /  2.1 °C 34.4 °F /  1.3 °C 30.13in /  1020.2hPa Calm     95% 0.00in /  0mm
04:53 35.5 °F /  1.9 °C 34.2 °F /  1.2 °C 30.13in /  1020.2hPa Calm     95% 0.00in /  0mm
04:58 35.5 °F /  1.9 °C 34.2 °F /  1.2 °C 30.13in /  1020.2hPa Calm     95% 0.00in /  0mm
05:03 35.4 °F /  1.9 °C 34.1 °F /  1.2 °C 30.14in /  1020.5hPa Calm     95% 0.00in /  0mm
05:08 35.7 °F /  2.1 °C 34.7 °F /  1.5 °C 30.14in /  1020.5hPa Calm     96% 0.00in /  0mm
05:13 36.1 °F /  2.3 °C 35.1 °F /  1.7 °C 30.14in /  1020.5hPa Calm     96% 0.00in /  0mm
05:18 36.4 °F /  2.4 °C 35.4 °F /  1.9 °C 30.14in /  1020.5hPa SSE 1.0mph /  1.6km/h 1.0mph /  1.6km/h 96% 0.00in /  0mm
05:23 36.8 °F /  2.7 °C 35.5 °F /  1.9 °C 30.14in /  1020.5hPa Calm     95% 0.00in /  0mm
05:28 36.8 °F /  2.7 °C 35.2 °F /  1.8 °C 30.14in /  1020.5hPa Calm     94% 0.00in /  0mm
05:33 36.8 °F /  2.7 °C 35.2 °F /  1.8 °C 30.14in /  1020.5hPa Calm     94% 0.00in /  0mm
05:38 36.9 °F /  2.7 °C 35.3 °F /  1.8 °C 30.14in /  1020.5hPa Calm     94% 0.00in /  0mm
05:44 37.1 °F /  2.8 °C 35.3 °F /  1.8 °C 30.15in /  1020.9hPa Calm     93% 0.00in /  0mm
05:49 37.2 °F /  2.9 °C 35.4 °F /  1.9 °C 30.15in /  1020.9hPa Calm     93% 0.00in /  0mm
05:54 37.1 °F /  2.8 °C 35.3 °F /  1.8 °C 30.15in /  1020.9hPa Calm     93% 0.00in /  0mm
05:59 37.2 °F /  2.9 °C 35.4 °F /  1.9 °C 30.16in /  1021.2hPa Calm     93% 0.00in /  0mm
06:04 37.0 °F /  2.8 °C 35.2 °F /  1.8 °C 30.16in /  1021.2hPa Calm     93% 0.00in /  0mm
06:09 37.0 °F /  2.8 °C 34.9 °F /  1.6 °C 30.16in /  1021.2hPa Calm   1.0mph /  1.6km/h 92% 0.00in /  0mm
06:14 36.9 °F /  2.7 °C 34.8 °F /  1.6 °C 30.16in /  1021.2hPa WNW 1.0mph /  1.6km/h 1.0mph /  1.6km/h 92% 0.00in /  0mm
06:19 37.1 °F /  2.8 °C 35.0 °F /  1.7 °C 30.16in /  1021.2hPa NW 1.0mph /  1.6km/h 2.0mph /  3.2km/h 92% 0.00in /  0mm
06:24 37.3 °F /  2.9 °C 35.2 °F /  1.8 °C 30.16in /  1021.2hPa NNW 1.0mph /  1.6km/h 2.0mph /  3.2km/h 92% 0.00in /  0mm
06:29 37.4 °F /  3 °C 35.0 °F /  1.7 °C 30.16in /  1021.2hPa NNW 1.0mph /  1.6km/h 2.0mph /  3.2km/h 91% 0.00in /  0mm
06:34 37.4 °F /  3 °C 35.0 °F /  1.7 °C 30.16in /  1021.2hPa NNW 1.0mph /  1.6km/h 1.0mph /  1.6km/h 91% 0.00in /  0mm
06:39 37.3 °F /  2.9 °C 34.9 °F /  1.6 °C 30.16in /  1021.2hPa Calm     91% 0.00in /  0mm
06:44 37.2 °F /  2.9 °C 34.8 °F /  1.6 °C 30.16in /  1021.2hPa Calm     91% 0.00in /  0mm
06:49 37.3 °F /  2.9 °C 34.9 °F /  1.6 °C 30.16in /  1021.2hPa Calm     91% 0.00in /  0mm
06:54 37.3 °F /  2.9 °C 34.9 °F /  1.6 °C 30.17in /  1021.6hPa Calm   1.0mph /  1.6km/h 91% 0.00in /  0mm
06:59 37.3 °F /  2.9 °C 34.6 °F /  1.4 °C 30.17in /  1021.6hPa Calm   1.0mph /  1.6km/h 90% 0.00in /  0mm
07:04 37.1 °F /  2.8 °C 34.4 °F /  1.3 °C 30.17in /  1021.6hPa Calm     90% 0.00in /  0mm
07:09 36.6 °F /  2.6 °C 34.2 °F /  1.2 °C 30.18in /  1021.9hPa Calm     91% 0.00in /  0mm
07:14 36.3 °F /  2.4 °C 33.9 °F /  1.1 °C 30.18in /  1021.9hPa Calm     91% 0.00in /  0mm
07:19 35.9 °F /  2.2 °C 33.8 °F /  1 °C 30.18in /  1021.9hPa Calm     92% 0.00in /  0mm
07:24 35.7 °F /  2.1 °C 33.9 °F /  1.1 °C 30.18in /  1021.9hPa Calm     93% 0.00in /  0mm
07:29 35.4 °F /  1.9 °C 33.6 °F /  0.9 °C 30.18in /  1021.9hPa Calm     93% 0.00in /  0mm
07:34 34.9 °F /  1.6 °C 33.1 °F /  0.6 °C 30.19in /  1022.2hPa Calm     93% 0.00in /  0mm
07:39 34.6 °F /  1.4 °C 33.0 °F /  0.6 °C 30.19in /  1022.2hPa Calm     94% 0.00in /  0mm
07:44 34.8 °F /  1.6 °C 33.5 °F /  0.8 °C 30.19in /  1022.2hPa Calm     95% 0.00in /  0mm
07:49 34.5 °F /  1.4 °C 33.0 °F /  0.6 °C 30.19in /  1022.2hPa Calm     94% 0.00in /  0mm
07:54 34.5 °F /  1.4 °C 33.2 °F /  0.7 °C 30.19in /  1022.2hPa Calm     95% 0.00in /  0mm
08:00 34.5 °F /  1.4 °C 33.2 °F /  0.7 °C 30.20in /  1022.6hPa Calm     95% 0.00in /  0mm
08:05 34.5 °F /  1.4 °C 33.2 °F /  0.7 °C 30.20in /  1022.6hPa Calm     95% 0.00in /  0mm
08:10 34.6 °F /  1.4 °C 33.3 °F /  0.7 °C 30.20in /  1022.6hPa Calm     95% 0.00in /  0mm
08:15 35.2 °F /  1.8 °C 33.9 °F /  1.1 °C 30.20in /  1022.6hPa Calm     95% 0.00in /  0mm
08:20 36.0 °F /  2.2 °C 34.7 °F /  1.5 °C 30.20in /  1022.6hPa Calm     95% 0.00in /  0mm
08:25 37.2 °F /  2.9 °C 35.9 °F /  2.2 °C 30.21in /  1022.9hPa Calm     95% 0.00in /  0mm
08:30 38.2 °F /  3.4 °C 36.1 °F /  2.3 °C 30.21in /  1022.9hPa Calm     92% 0.00in /  0mm
08:35 39.2 °F /  4 °C 36.8 °F /  2.7 °C 30.21in /  1022.9hPa Calm     91% 0.00in /  0mm
08:40 40.9 °F /  4.9 °C 38.2 °F /  3.4 °C 30.22in /  1023.2hPa Calm     90% 0.00in /  0mm
08:45 40.9 °F /  4.9 °C 37.0 °F /  2.8 °C 30.22in /  1023.2hPa Calm     86% 0.00in /  0mm
08:50 40.3 °F /  4.6 °C 36.2 °F /  2.3 °C 30.22in /  1023.2hPa Calm     85% 0.00in /  0mm
08:55 39.7 °F /  4.3 °C 35.9 °F /  2.2 °C 30.22in /  1023.2hPa Calm     86% 0.00in /  0mm
08:56 39.7 °F /  4.3 °C 35.9 °F /  2.2 °C 30.22in /  1023.2hPa Calm     86% 0.00in /  0mm
09:01 39.6 °F /  4.2 °C 36.1 °F /  2.3 °C 30.23in /  1023.6hPa Calm     87% 0.00in /  0mm
09:06 40.0 °F /  4.4 °C 36.7 °F /  2.6 °C 30.23in /  1023.6hPa Calm     88% 0.00in /  0mm
09:11 40.7 °F /  4.8 °C 37.4 °F /  3 °C 30.23in /  1023.6hPa Calm     88% 0.00in /  0mm
09:16 41.3 °F /  5.2 °C 37.4 °F /  3 °C 30.23in /  1023.6hPa Calm     86% 0.00in /  0mm
09:21 41.5 °F /  5.3 °C 37.3 °F /  2.9 °C 30.23in /  1023.6hPa Calm     85% 0.00in /  0mm
09:26 41.6 °F /  5.3 °C 36.8 °F /  2.7 °C 30.23in /  1023.6hPa NW 1.0mph /  1.6km/h 1.0mph /  1.6km/h 83% 0.00in /  0mm
09:31 41.9 °F /  5.5 °C 37.4 °F /  3 °C 30.24in /  1023.9hPa NW 1.0mph /  1.6km/h 1.0mph /  1.6km/h 84% 0.00in /  0mm
09:36 42.4 °F /  5.8 °C 37.9 °F /  3.3 °C 30.24in /  1023.9hPa NW 1.0mph /  1.6km/h 2.0mph /  3.2km/h 84% 0.00in /  0mm
09:41 42.8 °F /  6 °C 38.0 °F /  3.3 °C 30.24in /  1023.9hPa NW 2.0mph /  3.2km/h 3.0mph /  4.8km/h 83% 0.00in /  0mm
09:46 43.2 °F /  6.2 °C 38.1 °F /  3.4 °C 30.24in /  1023.9hPa NNW 2.0mph /  3.2km/h 3.0mph /  4.8km/h 82% 0.00in /  0mm
09:51 43.7 °F /  6.5 °C 38.6 °F /  3.7 °C 30.24in /  1023.9hPa NNW 2.0mph /  3.2km/h 3.0mph /  4.8km/h 82% 0.00in /  0mm
09:56 44.3 °F /  6.8 °C 39.2 °F /  4 °C 30.25in /  1024.3hPa North 2.0mph /  3.2km/h 3.0mph /  4.8km/h 82% 0.00in /  0mm
10:01 45.0 °F /  7.2 °C 39.2 °F /  4 °C 30.25in /  1024.3hPa North 3.0mph /  4.8km/h 3.0mph /  4.8km/h 80% 0.00in /  0mm
10:06 45.6 °F /  7.6 °C 39.2 °F /  4 °C 30.25in /  1024.3hPa NNW 2.0mph /  3.2km/h 4.0mph /  6.4km/h 78% 0.00in /  0mm
10:11 46.2 °F /  7.9 °C 39.7 °F /  4.3 °C 30.25in /  1024.3hPa NNW 1.0mph /  1.6km/h 3.0mph /  4.8km/h 78% 0.00in /  0mm
10:16 46.8 °F /  8.2 °C 40.0 °F /  4.4 °C 30.25in /  1024.3hPa NNW 2.0mph /  3.2km/h 3.0mph /  4.8km/h 77% 0.00in /  0mm
10:21 47.4 °F /  8.6 °C 40.2 °F /  4.6 °C 30.25in /  1024.3hPa NNE 4.0mph /  6.4km/h 5.0mph /  8km/h 76% 0.00in /  0mm
10:26 47.9 °F /  8.8 °C 39.7 °F /  4.3 °C 30.25in /  1024.3hPa NE 2.0mph /  3.2km/h 3.0mph /  4.8km/h 73% 0.00in /  0mm
10:31 48.2 °F /  9 °C 38.2 °F /  3.4 °C 30.26in /  1024.6hPa NNE 4.0mph /  6.4km/h 6.0mph /  9.7km/h 68% 0.00in /  0mm
10:36 48.5 °F /  9.2 °C 38.8 °F /  3.8 °C 30.26in /  1024.6hPa North 3.0mph /  4.8km/h 5.0mph /  8km/h 69% 0.00in /  0mm
10:41 48.9 °F /  9.4 °C 39.2 °F /  4 °C 30.26in /  1024.6hPa NNE 5.0mph /  8km/h 5.0mph /  8km/h 69% 0.00in /  0mm
10:46 49.3 °F /  9.6 °C 38.4 °F /  3.6 °C 30.26in /  1024.6hPa NNE 4.0mph /  6.4km/h 5.0mph /  8km/h 66% 0.00in /  0mm
10:51 49.6 °F /  9.8 °C 38.3 °F /  3.5 °C 30.26in /  1024.6hPa NNW 2.0mph /  3.2km/h 6.0mph /  9.7km/h 65% 0.00in /  0mm
10:56 49.6 °F /  9.8 °C 37.9 °F /  3.3 °C 30.26in /  1024.6hPa NNE 4.0mph /  6.4km/h 6.0mph /  9.7km/h 64% 0.00in /  0mm
11:02 49.8 °F /  9.9 °C 38.1 °F /  3.4 °C 30.26in /  1024.6hPa North 4.0mph /  6.4km/h 7.0mph /  11.3km/h 64% 0.00in /  0mm
11:07 50.3 °F /  10.2 °C 38.6 °F /  3.7 °C 30.26in /  1024.6hPa NE 5.0mph /  8km/h 7.0mph /  11.3km/h 64% 0.00in /  0mm
11:12 50.4 °F /  10.2 °C 38.7 °F /  3.7 °C 30.26in /  1024.6hPa NW 3.0mph /  4.8km/h 6.0mph /  9.7km/h 64% 0.00in /  0mm
11:17 50.8 °F /  10.4 °C 38.7 °F /  3.7 °C 30.26in /  1024.6hPa NNE 5.0mph /  8km/h 6.0mph /  9.7km/h 63% 0.00in /  0mm
11:22 51.1 °F /  10.6 °C 38.5 °F /  3.6 °C 30.26in /  1024.6hPa NNE 5.0mph /  8km/h 8.0mph /  12.9km/h 62% 0.00in /  0mm
11:27 51.3 °F /  10.7 °C 36.2 °F /  2.3 °C 30.25in /  1024.3hPa NNE 4.0mph /  6.4km/h 8.0mph /  12.9km/h 56% 0.00in /  0mm
11:32 51.3 °F /  10.7 °C 36.2 °F /  2.3 °C 30.26in /  1024.6hPa NE 5.0mph /  8km/h 7.0mph /  11.3km/h 56% 0.00in /  0mm
11:37 51.3 °F /  10.7 °C 35.7 °F /  2.1 °C 30.25in /  1024.3hPa NNE 7.0mph /  11.3km/h 9.0mph /  14.5km/h 55% 0.00in /  0mm
11:42 51.3 °F /  10.7 °C 35.7 °F /  2.1 °C 30.25in /  1024.3hPa NNE 5.0mph /  8km/h 7.0mph /  11.3km/h 55% 0.00in /  0mm
11:47 51.5 °F /  10.8 °C 35.0 °F /  1.7 °C 30.25in /  1024.3hPa ESE 3.0mph /  4.8km/h 7.0mph /  11.3km/h 53% 0.00in /  0mm
11:52 51.7 °F /  10.9 °C 36.5 °F /  2.5 °C 30.25in /  1024.3hPa NE 5.0mph /  8km/h 7.0mph /  11.3km/h 56% 0.00in /  0mm
11:57 52.1 °F /  11.2 °C 34.5 °F /  1.4 °C 30.25in /  1024.3hPa North 6.0mph /  9.7km/h 7.0mph /  11.3km/h 51% 0.00in /  0mm
12:02 52.5 °F /  11.4 °C 35.9 °F /  2.2 °C 30.25in /  1024.3hPa ENE 3.0mph /  4.8km/h 7.0mph /  11.3km/h 53% 0.00in /  0mm
12:07 52.9 °F /  11.6 °C 36.2 °F /  2.3 °C 30.25in /  1024.3hPa NNW 6.0mph /  9.7km/h 7.0mph /  11.3km/h 53% 0.00in /  0mm
12:12 53.2 °F /  11.8 °C 34.5 °F /  1.4 °C 30.26in /  1024.6hPa North 4.0mph /  6.4km/h 6.0mph /  9.7km/h 49% 0.00in /  0mm
12:17 53.3 °F /  11.8 °C 34.7 °F /  1.5 °C 30.25in /  1024.3hPa Calm   5.0mph /  8km/h 49% 0.00in /  0mm
12:22 53.5 °F /  11.9 °C 35.3 °F /  1.8 °C 30.25in /  1024.3hPa NNW 6.0mph /  9.7km/h 7.0mph /  11.3km/h 50% 0.00in /  0mm
12:27 53.5 °F /  11.9 °C 34.8 °F /  1.6 °C 30.25in /  1024.3hPa NW 4.0mph /  6.4km/h 4.0mph /  6.4km/h 49% 0.00in /  0mm
12:32 53.8 °F /  12.1 °C 35.6 °F /  2 °C 30.25in /  1024.3hPa West 3.0mph /  4.8km/h 5.0mph /  8km/h 50% 0.00in /  0mm
12:37 54.1 °F /  12.3 °C 35.9 °F /  2.2 °C 30.25in /  1024.3hPa NNW 3.0mph /  4.8km/h 3.0mph /  4.8km/h 50% 0.00in /  0mm
12:42 54.2 °F /  12.3 °C 35.5 °F /  1.9 °C 30.24in /  1023.9hPa NNW 3.0mph /  4.8km/h 7.0mph /  11.3km/h 49% 0.00in /  0mm
12:47 54.4 °F /  12.4 °C 35.1 °F /  1.7 °C 30.24in /  1023.9hPa NW 5.0mph /  8km/h 6.0mph /  9.7km/h 48% 0.00in /  0mm
12:52 54.7 °F /  12.6 °C 35.9 °F /  2.2 °C 30.24in /  1023.9hPa North 2.0mph /  3.2km/h 4.0mph /  6.4km/h 49% 0.00in /  0mm
12:58 54.8 °F /  12.7 °C 35.5 °F /  1.9 °C 30.23in /  1023.6hPa NW 2.0mph /  3.2km/h 5.0mph /  8km/h 48% 0.00in /  0mm
13:03 54.7 °F /  12.6 °C 35.9 °F /  2.2 °C 30.23in /  1023.6hPa NW 3.0mph /  4.8km/h 3.0mph /  4.8km/h 49% 0.00in /  0mm
13:08 55.0 °F /  12.8 °C 35.7 °F /  2.1 °C 30.23in /  1023.6hPa North 2.0mph /  3.2km/h 4.0mph /  6.4km/h 48% 0.00in /  0mm
13:13 55.4 °F /  13 °C 37.6 °F /  3.1 °C 30.23in /  1023.6hPa East 1.0mph /  1.6km/h 4.0mph /  6.4km/h 51% 0.00in /  0mm
13:18 55.5 °F /  13.1 °C 36.2 °F /  2.3 °C 30.23in /  1023.6hPa Calm   3.0mph /  4.8km/h 48% 0.00in /  0mm
13:23 55.9 °F /  13.3 °C 38.0 °F /  3.3 °C 30.22in /  1023.2hPa NE 3.0mph /  4.8km/h 5.0mph /  8km/h 51% 0.00in /  0mm
13:28 55.5 °F /  13.1 °C 35.6 °F /  2 °C 30.22in /  1023.2hPa NE 3.0mph /  4.8km/h 6.0mph /  9.7km/h 47% 0.00in /  0mm
13:33 55.3 °F /  12.9 °C 37.0 °F /  2.8 °C 30.22in /  1023.2hPa ENE 1.0mph /  1.6km/h 3.0mph /  4.8km/h 50% 0.00in /  0mm
13:38 55.4 °F /  13 °C 35.0 °F /  1.7 °C 30.22in /  1023.2hPa East 4.0mph /  6.4km/h 7.0mph /  11.3km/h 46% 0.00in /  0mm
13:43 55.5 °F /  13.1 °C 35.6 °F /  2 °C 30.22in /  1023.2hPa East 3.0mph /  4.8km/h 5.0mph /  8km/h 47% 0.00in /  0mm
13:48 55.8 °F /  13.2 °C 35.9 °F /  2.2 °C 30.22in /  1023.2hPa WNW 2.0mph /  3.2km/h 4.0mph /  6.4km/h 47% 0.00in /  0mm
13:53 56.7 °F /  13.7 °C 35.6 °F /  2 °C 30.22in /  1023.2hPa North 3.0mph /  4.8km/h 7.0mph /  11.3km/h 45% 0.00in /  0mm
13:58 56.6 °F /  13.7 °C 35.0 °F /  1.7 °C 30.22in /  1023.2hPa ENE 1.0mph /  1.6km/h 7.0mph /  11.3km/h 44% 0.00in /  0mm
14:03 56.4 °F /  13.6 °C 36.4 °F /  2.4 °C 30.22in /  1023.2hPa NE 4.0mph /  6.4km/h 5.0mph /  8km/h 47% 0.00in /  0mm
14:08 56.9 °F /  13.8 °C 37.4 °F /  3 °C 30.22in /  1023.2hPa NNE 1.0mph /  1.6km/h 4.0mph /  6.4km/h 48% 0.00in /  0mm
14:13 57.1 °F /  13.9 °C 35.4 °F /  1.9 °C 30.23in /  1023.6hPa West 1.0mph /  1.6km/h 5.0mph /  8km/h 44% 0.00in /  0mm
14:18 57.3 °F /  14.1 °C 36.2 °F /  2.3 °C 30.23in /  1023.6hPa NW 6.0mph /  9.7km/h 7.0mph /  11.3km/h 45% 0.00in /  0mm
14:23 57.4 °F /  14.1 °C 34.5 °F /  1.4 °C 30.22in /  1023.2hPa West 6.0mph /  9.7km/h 9.0mph /  14.5km/h 42% 0.00in /  0mm
14:28 57.3 °F /  14.1 °C 32.6 °F /  0.3 °C 30.22in /  1023.2hPa NW 3.0mph /  4.8km/h 10.0mph /  16.1km/h 39% 0.00in /  0mm
14:33 57.4 °F /  14.1 °C 33.9 °F /  1.1 °C 30.22in /  1023.2hPa NW 4.0mph /  6.4km/h 6.0mph /  9.7km/h 41% 0.00in /  0mm
14:38 57.5 °F /  14.2 °C 34.0 °F /  1.1 °C 30.22in /  1023.2hPa West 5.0mph /  8km/h 8.0mph /  12.9km/h 41% 0.00in /  0mm
14:43 57.4 °F /  14.1 °C 33.9 °F /  1.1 °C 30.22in /  1023.2hPa Calm   7.0mph /  11.3km/h 41% 0.00in /  0mm
14:48 57.5 °F /  14.2 °C 33.4 °F /  0.8 °C 30.22in /  1023.2hPa NE 3.0mph /  4.8km/h 8.0mph /  12.9km/h 40% 0.00in /  0mm
14:53 57.8 °F /  14.3 °C 32.4 °F /  0.2 °C 30.22in /  1023.2hPa NW 3.0mph /  4.8km/h 5.0mph /  8km/h 38% 0.00in /  0mm
14:58 58.2 °F /  14.6 °C 32.1 °F /  0.1 °C 30.21in /  1022.9hPa NW 3.0mph /  4.8km/h 8.0mph /  12.9km/h 37% 0.00in /  0mm
15:03 58.2 °F /  14.6 °C 34.6 °F /  1.4 °C 30.21in /  1022.9hPa NNE 6.0mph /  9.7km/h 7.0mph /  11.3km/h 41% 0.00in /  0mm
15:08 58.2 °F /  14.6 °C 34.0 °F /  1.1 °C 30.21in /  1022.9hPa NW 4.0mph /  6.4km/h 7.0mph /  11.3km/h 40% 0.00in /  0mm
15:13 58.1 °F /  14.5 °C 33.9 °F /  1.1 °C 30.21in /  1022.9hPa West 2.0mph /  3.2km/h 5.0mph /  8km/h 40% 0.00in /  0mm
15:18 58.0 °F /  14.4 °C 33.2 °F /  0.7 °C 30.21in /  1022.9hPa NW 3.0mph /  4.8km/h 6.0mph /  9.7km/h 39% 0.00in /  0mm
15:23 58.3 °F /  14.6 °C 34.7 °F /  1.5 °C 30.21in /  1022.9hPa North 2.0mph /  3.2km/h 5.0mph /  8km/h 41% 0.00in /  0mm
15:28 58.1 °F /  14.5 °C 34.5 °F /  1.4 °C 30.20in /  1022.6hPa NNE 2.0mph /  3.2km/h 6.0mph /  9.7km/h 41% 0.00in /  0mm
15:33 58.1 °F /  14.5 °C 33.3 °F /  0.7 °C 30.21in /  1022.9hPa North 5.0mph /  8km/h 6.0mph /  9.7km/h 39% 0.00in /  0mm
15:38 58.3 °F /  14.6 °C 34.1 °F /  1.2 °C 30.20in /  1022.6hPa NNE 2.0mph /  3.2km/h 6.0mph /  9.7km/h 40% 0.00in /  0mm
15:44 58.4 °F /  14.7 °C 34.2 °F /  1.2 °C 30.21in /  1022.9hPa NW 3.0mph /  4.8km/h 5.0mph /  8km/h 40% 0.00in /  0mm
15:49 58.6 °F /  14.8 °C 34.4 °F /  1.3 °C 30.21in /  1022.9hPa North 2.0mph /  3.2km/h 5.0mph /  8km/h 40% 0.00in /  0mm
15:54 58.6 °F /  14.8 °C 34.4 °F /  1.3 °C 30.21in /  1022.9hPa North 1.0mph /  1.6km/h 6.0mph /  9.7km/h 40% 0.00in /  0mm
15:59 58.1 °F /  14.5 °C 33.9 °F /  1.1 °C 30.22in /  1023.2hPa NE 1.0mph /  1.6km/h 4.0mph /  6.4km/h 40% 0.00in /  0mm
16:04 58.2 °F /  14.6 °C 34.0 °F /  1.1 °C 30.22in /  1023.2hPa North 5.0mph /  8km/h 6.0mph /  9.7km/h 40% 0.00in /  0mm
16:09 58.5 °F /  14.7 °C 34.9 °F /  1.6 °C 30.22in /  1023.2hPa NNW 2.0mph /  3.2km/h 5.0mph /  8km/h 41% 0.00in /  0mm
16:14 58.4 °F /  14.7 °C 33.6 °F /  0.9 °C 30.22in /  1023.2hPa ENE 2.0mph /  3.2km/h 7.0mph /  11.3km/h 39% 0.00in /  0mm
16:19 58.2 °F /  14.6 °C 34.6 °F /  1.4 °C 30.22in /  1023.2hPa NE 5.0mph /  8km/h 7.0mph /  11.3km/h 41% 0.00in /  0mm
16:24 58.1 °F /  14.5 °C 35.2 °F /  1.8 °C 30.22in /  1023.2hPa NNE 3.0mph /  4.8km/h 5.0mph /  8km/h 42% 0.00in /  0mm
16:29 58.1 °F /  14.5 °C 33.9 °F /  1.1 °C 30.22in /  1023.2hPa NNE 3.0mph /  4.8km/h 6.0mph /  9.7km/h 40% 0.00in /  0mm
16:34 58.0 °F /  14.4 °C 33.8 °F /  1 °C 30.22in /  1023.2hPa NNE 4.0mph /  6.4km/h 7.0mph /  11.3km/h 40% 0.00in /  0mm
16:39 57.7 °F /  14.3 °C 32.9 °F /  0.5 °C 30.22in /  1023.2hPa NE 4.0mph /  6.4km/h 6.0mph /  9.7km/h 39% 0.00in /  0mm
16:44 57.5 °F /  14.2 °C 34.0 °F /  1.1 °C 30.21in /  1022.9hPa NNE 5.0mph /  8km/h 7.0mph /  11.3km/h 41% 0.00in /  0mm
16:49 57.4 °F /  14.1 °C 35.7 °F /  2.1 °C 30.21in /  1022.9hPa NNE 3.0mph /  4.8km/h 7.0mph /  11.3km/h 44% 0.00in /  0mm
16:54 57.3 °F /  14.1 °C 34.4 °F /  1.3 °C 30.22in /  1023.2hPa North 6.0mph /  9.7km/h 7.0mph /  11.3km/h 42% 0.00in /  0mm
16:59 57.2 °F /  14 °C 34.9 °F /  1.6 °C 30.21in /  1022.9hPa NE 6.0mph /  9.7km/h 9.0mph /  14.5km/h 43% 0.00in /  0mm
17:04 57.1 °F /  13.9 °C 34.8 °F /  1.6 °C 30.22in /  1023.2hPa NNE 4.0mph /  6.4km/h 6.0mph /  9.7km/h 43% 0.00in /  0mm
17:09 57.1 °F /  13.9 °C 34.2 °F /  1.2 °C 30.22in /  1023.2hPa NE 4.0mph /  6.4km/h 6.0mph /  9.7km/h 42% 0.00in /  0mm
17:14 57.0 °F /  13.9 °C 34.8 °F /  1.6 °C 30.22in /  1023.2hPa NE 4.0mph /  6.4km/h 5.0mph /  8km/h 43% 0.00in /  0mm
17:19 56.9 °F /  13.8 °C 34.1 °F /  1.2 °C 30.22in /  1023.2hPa NE 3.0mph /  4.8km/h 6.0mph /  9.7km/h 42% 0.00in /  0mm
17:24 56.9 °F /  13.8 °C 34.1 °F /  1.2 °C 30.21in /  1022.9hPa NE 3.0mph /  4.8km/h 6.0mph /  9.7km/h 42% 0.00in /  0mm
17:29 56.6 °F /  13.7 °C 34.4 °F /  1.3 °C 30.21in /  1022.9hPa NNE 3.0mph /  4.8km/h 5.0mph /  8km/h 43% 0.00in /  0mm
17:34 56.5 °F /  13.6 °C 34.9 °F /  1.6 °C 30.21in /  1022.9hPa NE 4.0mph /  6.4km/h 5.0mph /  8km/h 44% 0.00in /  0mm
17:39 56.3 °F /  13.5 °C 35.2 °F /  1.8 °C 30.21in /  1022.9hPa NNE 3.0mph /  4.8km/h 4.0mph /  6.4km/h 45% 0.00in /  0mm
17:44 56.1 °F /  13.4 °C 34.5 °F /  1.4 °C 30.22in /  1023.2hPa NNE 4.0mph /  6.4km/h 8.0mph /  12.9km/h 44% 0.00in /  0mm
17:49 55.8 °F /  13.2 °C 34.2 °F /  1.2 °C 30.22in /  1023.2hPa NNE 2.0mph /  3.2km/h 4.0mph /  6.4km/h 44% 0.00in /  0mm
17:54 55.4 °F /  13 °C 34.4 °F /  1.3 °C 30.22in /  1023.2hPa NNE 1.0mph /  1.6km/h 3.0mph /  4.8km/h 45% 0.00in /  0mm
17:59 55.1 °F /  12.8 °C 34.2 °F /  1.2 °C 30.22in /  1023.2hPa NNE 2.0mph /  3.2km/h 4.0mph /  6.4km/h 45% 0.00in /  0mm
18:04 54.6 °F /  12.6 °C 33.7 °F /  0.9 °C 30.22in /  1023.2hPa NNE 1.0mph /  1.6km/h 2.0mph /  3.2km/h 45% 0.00in /  0mm
18:09 54.1 °F /  12.3 °C 33.8 °F /  1 °C 30.22in /  1023.2hPa NE 2.0mph /  3.2km/h 3.0mph /  4.8km/h 46% 0.00in /  0mm
18:14 53.7 °F /  12.1 °C 34.0 °F /  1.1 °C 30.22in /  1023.2hPa NNE 1.0mph /  1.6km/h 2.0mph /  3.2km/h 47% 0.00in /  0mm
18:19 53.4 °F /  11.9 °C 33.7 °F /  0.9 °C 30.23in /  1023.6hPa NNE 2.0mph /  3.2km/h 3.0mph /  4.8km/h 47% 0.00in /  0mm
18:24 53.0 °F /  11.7 °C 33.8 °F /  1 °C 30.23in /  1023.6hPa NNE 1.0mph /  1.6km/h 2.0mph /  3.2km/h 48% 0.00in /  0mm
18:29 52.8 °F /  11.6 °C 34.2 °F /  1.2 °C 30.23in /  1023.6hPa NE 2.0mph /  3.2km/h 2.0mph /  3.2km/h 49% 0.00in /  0mm
18:34 52.5 °F /  11.4 °C 33.9 °F /  1.1 °C 30.23in /  1023.6hPa NE 1.0mph /  1.6km/h 2.0mph /  3.2km/h 49% 0.00in /  0mm
18:39 52.3 °F /  11.3 °C 33.7 °F /  0.9 °C 30.24in /  1023.9hPa ENE 2.0mph /  3.2km/h 2.0mph /  3.2km/h 49% 0.00in /  0mm
18:44 52.4 °F /  11.3 °C 33.8 °F /  1 °C 30.24in /  1023.9hPa Calm   2.0mph /  3.2km/h 49% 0.00in /  0mm
18:50 52.4 °F /  11.3 °C 33.3 °F /  0.7 °C 30.24in /  1023.9hPa Calm   2.0mph /  3.2km/h 48% 0.00in /  0mm
18:55 52.2 °F /  11.2 °C 33.1 °F /  0.6 °C 30.25in /  1024.3hPa Calm   1.0mph /  1.6km/h 48% 0.00in /  0mm
19:00 52.0 °F /  11.1 °C 32.9 °F /  0.5 °C 30.25in /  1024.3hPa ENE 1.0mph /  1.6km/h 2.0mph /  3.2km/h 48% 0.00in /  0mm
19:05 51.7 °F /  10.9 °C 33.2 °F /  0.7 °C 30.24in /  1023.9hPa ENE 1.0mph /  1.6km/h 2.0mph /  3.2km/h 49% 0.00in /  0mm
19:10 51.3 °F /  10.7 °C 32.8 °F /  0.4 °C 30.25in /  1024.3hPa ENE 2.0mph /  3.2km/h 2.0mph /  3.2km/h 49% 0.00in /  0mm
19:15 51.2 °F /  10.7 °C 33.2 °F /  0.7 °C 30.24in /  1023.9hPa NE 2.0mph /  3.2km/h 3.0mph /  4.8km/h 50% 0.00in /  0mm
19:20 50.9 °F /  10.5 °C 32.9 °F /  0.5 °C 30.25in /  1024.3hPa Calm   2.0mph /  3.2km/h 50% 0.00in /  0mm
19:25 50.8 °F /  10.4 °C 32.3 °F /  0.2 °C 30.25in /  1024.3hPa ENE 1.0mph /  1.6km/h 2.0mph /  3.2km/h 49% 0.00in /  0mm
19:30 50.9 °F /  10.5 °C 32.4 °F /  0.2 °C 30.25in /  1024.3hPa NE 2.0mph /  3.2km/h 3.0mph /  4.8km/h 49% 0.00in /  0mm
19:35 50.4 °F /  10.2 °C 32.5 °F /  0.3 °C 30.24in /  1023.9hPa NE 1.0mph /  1.6km/h 2.0mph /  3.2km/h 50% 0.00in /  0mm
19:40 50.0 °F /  10 °C 32.6 °F /  0.3 °C 30.25in /  1024.3hPa NE 1.0mph /  1.6km/h 2.0mph /  3.2km/h 51% 0.00in /  0mm
19:45 49.9 °F /  9.9 °C 32.5 °F /  0.3 °C 30.25in /  1024.3hPa NE 2.0mph /  3.2km/h 3.0mph /  4.8km/h 51% 0.00in /  0mm
19:50 50.0 °F /  10 °C 32.1 °F /  0.1 °C 30.25in /  1024.3hPa NE 1.0mph /  1.6km/h 2.0mph /  3.2km/h 50% 0.00in /  0mm
19:55 50.1 °F /  10.1 °C 31.7 °F /  -0.2 °C 30.25in /  1024.3hPa ENE 3.0mph /  4.8km/h 3.0mph /  4.8km/h 49% 0.00in /  0mm
20:00 50.2 °F /  10.1 °C 31.8 °F /  -0.1 °C 30.26in /  1024.6hPa East 1.0mph /  1.6km/h 2.0mph /  3.2km/h 49% 0.00in /  0mm
20:05 50.2 °F /  10.1 °C 31.8 °F /  -0.1 °C 30.26in /  1024.6hPa East 1.0mph /  1.6km/h 2.0mph /  3.2km/h 49% 0.00in /  0mm
20:10 50.3 °F /  10.2 °C 31.4 °F /  -0.3 °C 30.26in /  1024.6hPa Calm   2.0mph /  3.2km/h 48% 0.00in /  0mm
20:15 50.2 °F /  10.1 °C 31.8 °F /  -0.1 °C 30.27in /  1024.9hPa East 2.0mph /  3.2km/h 2.0mph /  3.2km/h 49% 0.00in /  0mm
20:20 50.1 °F /  10.1 °C 31.7 °F /  -0.2 °C 30.27in /  1024.9hPa NE 1.0mph /  1.6km/h 1.0mph /  1.6km/h 49% 0.00in /  0mm
20:25 49.5 °F /  9.7 °C 31.6 °F /  -0.2 °C 30.27in /  1024.9hPa NE 1.0mph /  1.6km/h 1.0mph /  1.6km/h 50% 0.00in /  0mm
20:30 48.9 °F /  9.4 °C 31.6 °F /  -0.2 °C 30.27in /  1024.9hPa NE 2.0mph /  3.2km/h 2.0mph /  3.2km/h 51% 0.00in /  0mm
20:35 48.8 °F /  9.3 °C 31.5 °F /  -0.3 °C 30.27in /  1024.9hPa NE 1.0mph /  1.6km/h 2.0mph /  3.2km/h 51% 0.00in /  0mm
20:40 48.9 °F /  9.4 °C 32.1 °F /  0.1 °C 30.27in /  1024.9hPa NE 3.0mph /  4.8km/h 3.0mph /  4.8km/h 52% 0.00in /  0mm
20:45 49.0 °F /  9.4 °C 32.2 °F /  0.1 °C 30.26in /  1024.6hPa NE 2.0mph /  3.2km/h 5.0mph /  8km/h 52% 0.00in /  0mm
20:50 48.2 °F /  9 °C 32.3 °F /  0.2 °C 30.26in /  1024.6hPa NNE 2.0mph /  3.2km/h 4.0mph /  6.4km/h 54% 0.00in /  0mm
20:55 47.2 °F /  8.4 °C 32.3 °F /  0.2 °C 30.25in /  1024.3hPa NNE 3.0mph /  4.8km/h 3.0mph /  4.8km/h 56% 0.00in /  0mm
21:00 47.0 °F /  8.3 °C 32.6 °F /  0.3 °C 30.25in /  1024.3hPa NNE 1.0mph /  1.6km/h 5.0mph /  8km/h 57% 0.00in /  0mm
21:05 47.2 °F /  8.4 °C 32.8 °F /  0.4 °C 30.25in /  1024.3hPa NE 3.0mph /  4.8km/h 5.0mph /  8km/h 57% 0.00in /  0mm
21:10 47.2 °F /  8.4 °C 33.2 °F /  0.7 °C 30.25in /  1024.3hPa ENE 2.0mph /  3.2km/h 4.0mph /  6.4km/h 58% 0.00in /  0mm
21:15 47.6 °F /  8.7 °C 33.6 °F /  0.9 °C 30.25in /  1024.3hPa NE 2.0mph /  3.2km/h 4.0mph /  6.4km/h 58% 0.00in /  0mm
21:20 47.7 °F /  8.7 °C 33.7 °F /  0.9 °C 30.25in /  1024.3hPa NNE 4.0mph /  6.4km/h 5.0mph /  8km/h 58% 0.00in /  0mm
21:25 47.2 °F /  8.4 °C 33.6 °F /  0.9 °C 30.25in /  1024.3hPa NNW 2.0mph /  3.2km/h 4.0mph /  6.4km/h 59% 0.00in /  0mm
21:30 46.9 °F /  8.3 °C 33.8 °F /  1 °C 30.25in /  1024.3hPa NE 3.0mph /  4.8km/h 4.0mph /  6.4km/h 60% 0.00in /  0mm
21:35 46.7 °F /  8.2 °C 33.6 °F /  0.9 °C 30.24in /  1023.9hPa NE 4.0mph /  6.4km/h 5.0mph /  8km/h 60% 0.00in /  0mm
21:41 46.5 °F /  8.1 °C 33.8 °F /  1 °C 30.25in /  1024.3hPa NE 3.0mph /  4.8km/h 4.0mph /  6.4km/h 61% 0.00in /  0mm
21:46 46.7 °F /  8.2 °C 33.6 °F /  0.9 °C 30.24in /  1023.9hPa NNE 3.0mph /  4.8km/h 4.0mph /  6.4km/h 60% 0.00in /  0mm
21:51 46.7 °F /  8.2 °C 34.0 °F /  1.1 °C 30.24in /  1023.9hPa NE 4.0mph /  6.4km/h 7.0mph /  11.3km/h 61% 0.00in /  0mm
21:56 46.5 °F /  8.1 °C 33.8 °F /  1 °C 30.24in /  1023.9hPa NNE 2.0mph /  3.2km/h 5.0mph /  8km/h 61% 0.00in /  0mm
22:01 46.3 °F /  7.9 °C 34.0 °F /  1.1 °C 30.24in /  1023.9hPa NNE 4.0mph /  6.4km/h 6.0mph /  9.7km/h 62% 0.00in /  0mm
22:06 46.2 °F /  7.9 °C 33.9 °F /  1.1 °C 30.24in /  1023.9hPa NE 4.0mph /  6.4km/h 5.0mph /  8km/h 62% 0.00in /  0mm
22:11 46.1 °F /  7.8 °C 34.2 °F /  1.2 °C 30.24in /  1023.9hPa NE 3.0mph /  4.8km/h 4.0mph /  6.4km/h 63% 0.00in /  0mm
22:16 46.0 °F /  7.8 °C 34.1 °F /  1.2 °C 30.25in /  1024.3hPa NNE 2.0mph /  3.2km/h 4.0mph /  6.4km/h 63% 0.00in /  0mm
22:21 46.1 °F /  7.8 °C 34.2 °F /  1.2 °C 30.24in /  1023.9hPa NNE 3.0mph /  4.8km/h 4.0mph /  6.4km/h 63% 0.00in /  0mm
22:26 46.0 °F /  7.8 °C 34.1 °F /  1.2 °C 30.25in /  1024.3hPa NNE 3.0mph /  4.8km/h 4.0mph /  6.4km/h 63% 0.00in /  0mm
22:31 45.8 °F /  7.7 °C 34.3 °F /  1.3 °C 30.25in /  1024.3hPa ENE 1.0mph /  1.6km/h 2.0mph /  3.2km/h 64% 0.00in /  0mm
22:36 45.8 °F /  7.7 °C 34.3 °F /  1.3 °C 30.25in /  1024.3hPa ENE 1.0mph /  1.6km/h 2.0mph /  3.2km/h 64% 0.00in /  0mm
22:41 46.0 °F /  7.8 °C 34.5 °F /  1.4 °C 30.25in /  1024.3hPa Calm   2.0mph /  3.2km/h 64% 0.00in /  0mm
22:46 46.0 °F /  7.8 °C 34.5 °F /  1.4 °C 30.25in /  1024.3hPa Calm   1.0mph /  1.6km/h 64% 0.00in /  0mm
22:51 46.0 °F /  7.8 °C 34.5 °F /  1.4 °C 30.26in /  1024.6hPa ENE 2.0mph /  3.2km/h 2.0mph /  3.2km/h 64% 0.00in /  0mm
22:56 45.9 °F /  7.7 °C 34.4 °F /  1.3 °C 30.26in /  1024.6hPa NE 1.0mph /  1.6km/h 2.0mph /  3.2km/h 64% 0.00in /  0mm
23:01 45.6 °F /  7.6 °C 34.5 °F /  1.4 °C 30.26in /  1024.6hPa NNE 2.0mph /  3.2km/h 2.0mph /  3.2km/h 65% 0.00in /  0mm
23:06 45.3 °F /  7.4 °C 34.2 °F /  1.2 °C 30.26in /  1024.6hPa North 3.0mph /  4.8km/h 3.0mph /  4.8km/h 65% 0.00in /  0mm
23:11 44.7 °F /  7.1 °C 34.4 °F /  1.3 °C 30.26in /  1024.6hPa NNE 1.0mph /  1.6km/h 2.0mph /  3.2km/h 67% 0.00in /  0mm
23:16 44.4 °F /  6.9 °C 34.5 °F /  1.4 °C 30.26in /  1024.6hPa NNE 3.0mph /  4.8km/h 4.0mph /  6.4km/h 68% 0.00in /  0mm
23:21 44.7 °F /  7.1 °C 34.4 °F /  1.3 °C 30.26in /  1024.6hPa North 2.0mph /  3.2km/h 4.0mph /  6.4km/h 67% 0.00in /  0mm
23:26 44.7 °F /  7.1 °C 34.4 °F /  1.3 °C 30.26in /  1024.6hPa NNE 2.0mph /  3.2km/h 4.0mph /  6.4km/h 67% 0.00in /  0mm
23:31 44.5 °F /  6.9 °C 34.6 °F /  1.4 °C 30.26in /  1024.6hPa NE 2.0mph /  3.2km/h 4.0mph /  6.4km/h 68% 0.00in /  0mm
23:36 44.9 °F /  7.2 °C 35.0 °F /  1.7 °C 30.26in /  1024.6hPa NE 4.0mph /  6.4km/h 5.0mph /  8km/h 68% 0.00in /  0mm
23:41 45.4 °F /  7.4 °C 35.1 °F /  1.7 °C 30.26in /  1024.6hPa NE 2.0mph /  3.2km/h 5.0mph /  8km/h 67% 0.00in /  0mm
23:46 45.4 °F /  7.4 °C 35.1 °F /  1.7 °C 30.26in /  1024.6hPa NE 3.0mph /  4.8km/h 6.0mph /  9.7km/h 67% 0.00in /  0mm
23:52 45.7 °F /  7.6 °C 35.0 °F /  1.7 °C 30.25in /  1024.3hPa ENE 1.0mph /  1.6km/h 4.0mph /  6.4km/h 66% 0.00in /  0mm
23:57 45.7 °F /  7.6 °C 35.0 °F /  1.7 °C 30.25in /  1024.3hPa ENE 2.0mph /  3.2km/h 3.0mph /  4.8km/h 66% 0.00in /  0mm
Compliments of Weather Underground